Altona, New York
Current Conditions -  °F | °C
As of 12:53 PM on Tuesday 21 Oct 2014 (Local Time) from KPBG Reporting Station
Light Rain Light Rain  
Wind Chill:   Ceiling: 800
Heat Index:   Visibility: 5mi
Dew Point:   Wind: 10mph
Humidity: 93%   Direction: 360°N
Pressure: 29.99"   Gusts: NA
Location:  44.89°N, 73.66°W
Report Text: KPBG 211653Z AUTO 36009KT 5SM -RA BR BKN008 OVC015 09/08 A2999 RMK AO2 CIG 006V011 SLP157 P0001 T00890078
Loading
Personal Weather Stations






























Interactive Weather Map
Tropical Storm Tracking
New forecast layout! Learn more

10-Day Weather Forecast

Advertisements
Track Severe Weather on mobile